Adrian, Missouri
Current Conditions -  °F | °C
As of 12:55 AM on Monday 24 Nov 2014 (Local Time) from KGLY Reporting Station
Few Clouds Few Clouds  
Wind Chill: 36°   Ceiling: Unl
Heat Index: 41°   Visibility: 10mi
Dew Point: 37°   Wind: 8mph
Humidity: 87%   Direction: 270°W
Pressure: 29.5"   Gusts: NA
Location:  38.4°N, 94.35°W
Report Text: KGLY 240655Z AUTO 27007KT 10SM FEW036 05/03 A2950 RMK AO2
Loading
Personal Weather Stations






























Interactive Weather Map New forecast layout! Learn more

10-Day Weather Forecast

Advertisements
Track Severe Weather on mobile